sensor_id;sensor_type;location;lat;lon;timestamp;temperature;humidity
18934;DHT22;9599;53.706;10.384;2023-05-15T00:01:00;12.40;99.90
18934;DHT22;9599;53.706;10.384;2023-05-15T00:03:28;12.40;99.90
18934;DHT22;9599;53.706;10.384;2023-05-15T00:05:57;12.30;99.90
18934;DHT22;9599;53.706;10.384;2023-05-15T00:08:25;12.30;99.90
18934;DHT22;9599;53.706;10.384;2023-05-15T00:10:52;12.30;99.90
18934;DHT22;9599;53.706;10.384;2023-05-15T00:13:27;12.10;99.90
18934;DHT22;9599;53.706;10.384;2023-05-15T00:15:56;12.10;99.90
18934;DHT22;9599;53.706;10.384;2023-05-15T00:18:25;12.10;99.90
18934;DHT22;9599;53.706;10.384;2023-05-15T00:20:53;12.10;99.90
18934;DHT22;9599;53.706;10.384;2023-05-15T00:23:21;12.10;99.90
18934;DHT22;9599;53.706;10.384;2023-05-15T00:25:49;12.10;99.90
18934;DHT22;9599;53.706;10.384;2023-05-15T00:28:17;12.10;99.90
18934;DHT22;9599;53.706;10.384;2023-05-15T00:30:47;12.00;99.90
18934;DHT22;9599;53.706;10.384;2023-05-15T00:33:15;12.00;99.90
18934;DHT22;9599;53.706;10.384;2023-05-15T00:35:44;11.90;99.90
18934;DHT22;9599;53.706;10.384;2023-05-15T00:38:12;11.70;99.90
18934;DHT22;9599;53.706;10.384;2023-05-15T00:40:41;11.70;99.90
18934;DHT22;9599;53.706;10.384;2023-05-15T00:43:11;11.60;99.90
18934;DHT22;9599;53.706;10.384;2023-05-15T00:45:41;11.70;99.90
18934;DHT22;9599;53.706;10.384;2023-05-15T00:48:09;11.70;99.90
18934;DHT22;9599;53.706;10.384;2023-05-15T00:50:38;11.60;99.90
18934;DHT22;9599;53.706;10.384;2023-05-15T00:53:10;11.50;99.90
18934;DHT22;9599;53.706;10.384;2023-05-15T00:55:38;11.50;99.90
18934;DHT22;9599;53.706;10.384;2023-05-15T00:58:09;11.50;99.90
18934;DHT22;9599;53.706;10.384;2023-05-15T01:00:38;11.50;99.90
18934;DHT22;9599;53.706;10.384;2023-05-15T01:03:06;11.50;99.90
18934;DHT22;9599;53.706;10.384;2023-05-15T01:05:34;11.40;99.90
18934;DHT22;9599;53.706;10.384;2023-05-15T01:08:10;11.30;99.90
18934;DHT22;9599;53.706;10.384;2023-05-15T01:10:42;11.30;99.90
18934;DHT22;9599;53.706;10.384;2023-05-15T01:13:13;11.30;99.90
18934;DHT22;9599;53.706;10.384;2023-05-15T01:15:42;11.30;99.90
18934;DHT22;9599;53.706;10.384;2023-05-15T01:18:10;11.30;99.90
18934;DHT22;9599;53.706;10.384;2023-05-15T01:20:49;11.40;99.90
18934;DHT22;9599;53.706;10.384;2023-05-15T01:23:37;11.30;99.90
18934;DHT22;9599;53.706;10.384;2023-05-15T01:26:34;11.30;99.90
18934;DHT22;9599;53.706;10.384;2023-05-15T01:29:10;11.20;99.90
18934;DHT22;9599;53.706;10.384;2023-05-15T01:31:44;11.20;99.90
18934;DHT22;9599;53.706;10.384;2023-05-15T01:34:15;11.10;99.90
18934;DHT22;9599;53.706;10.384;2023-05-15T01:36:49;11.20;99.90
18934;DHT22;9599;53.706;10.384;2023-05-15T01:39:19;11.10;99.90
18934;DHT22;9599;53.706;10.384;2023-05-15T01:41:53;11.10;99.90
18934;DHT22;9599;53.706;10.384;2023-05-15T01:44:26;11.10;99.90
18934;DHT22;9599;53.706;10.384;2023-05-15T01:46:57;11.10;99.90
18934;DHT22;9599;53.706;10.384;2023-05-15T01:49:27;11.10;99.90
18934;DHT22;9599;53.706;10.384;2023-05-15T01:52:02;11.00;99.90
18934;DHT22;9599;53.706;10.384;2023-05-15T01:54:32;11.00;99.90
18934;DHT22;9599;53.706;10.384;2023-05-15T01:57:01;11.00;99.90
18934;DHT22;9599;53.706;10.384;2023-05-15T01:59:32;10.90;99.90
18934;DHT22;9599;53.706;10.384;2023-05-15T02:02:03;10.90;99.90
18934;DHT22;9599;53.706;10.384;2023-05-15T02:04:32;10.80;99.90
18934;DHT22;9599;53.706;10.384;2023-05-15T02:07:02;10.80;99.90
18934;DHT22;9599;53.706;10.384;2023-05-15T02:09:31;10.80;99.90
18934;DHT22;9599;53.706;10.384;2023-05-15T02:12:01;10.70;99.90
18934;DHT22;9599;53.706;10.384;2023-05-15T02:14:31;10.70;99.90
18934;DHT22;9599;53.706;10.384;2023-05-15T02:16:59;10.70;99.90
18934;DHT22;9599;53.706;10.384;2023-05-15T02:19:28;10.70;99.90
18934;DHT22;9599;53.706;10.384;2023-05-15T02:21:56;10.60;99.90
18934;DHT22;9599;53.706;10.384;2023-05-15T02:24:24;10.60;99.90
18934;DHT22;9599;53.706;10.384;2023-05-15T02:26:58;10.60;99.90
18934;DHT22;9599;53.706;10.384;2023-05-15T02:29:36;10.50;99.90
18934;DHT22;9599;53.706;10.384;2023-05-15T02:32:13;10.50;99.90
18934;DHT22;9599;53.706;10.384;2023-05-15T02:34:51;10.50;99.90
18934;DHT22;9599;53.706;10.384;2023-05-15T02:37:26;10.50;99.90
18934;DHT22;9599;53.706;10.384;2023-05-15T02:39:55;10.50;99.90
18934;DHT22;9599;53.706;10.384;2023-05-15T02:42:27;10.40;99.90
18934;DHT22;9599;53.706;10.384;2023-05-15T02:44:57;10.30;99.90
18934;DHT22;9599;53.706;10.384;2023-05-15T02:47:29;10.30;99.90
18934;DHT22;9599;53.706;10.384;2023-05-15T02:49:58;10.30;99.90
18934;DHT22;9599;53.706;10.384;2023-05-15T02:52:26;10.30;99.90
18934;DHT22;9599;53.706;10.384;2023-05-15T02:54:54;10.30;99.90
18934;DHT22;9599;53.706;10.384;2023-05-15T02:57:22;10.30;99.90
18934;DHT22;9599;53.706;10.384;2023-05-15T02:59:51;10.30;99.90
18934;DHT22;9599;53.706;10.384;2023-05-15T03:02:21;10.30;99.90
18934;DHT22;9599;53.706;10.384;2023-05-15T03:04:50;10.20;99.90
18934;DHT22;9599;53.706;10.384;2023-05-15T03:07:18;10.20;99.90
18934;DHT22;9599;53.706;10.384;2023-05-15T03:09:47;10.20;99.90
18934;DHT22;9599;53.706;10.384;2023-05-15T03:12:15;10.10;99.90
18934;DHT22;9599;53.706;10.384;2023-05-15T03:14:43;10.10;99.90
18934;DHT22;9599;53.706;10.384;2023-05-15T03:17:11;10.10;99.90
18934;DHT22;9599;53.706;10.384;2023-05-15T03:19:42;10.10;99.90
18934;DHT22;9599;53.706;10.384;2023-05-15T03:22:10;10.10;99.90
18934;DHT22;9599;53.706;10.384;2023-05-15T03:24:38;10.10;99.90
18934;DHT22;9599;53.706;10.384;2023-05-15T03:27:06;10.10;99.90
18934;DHT22;9599;53.706;10.384;2023-05-15T03:29:34;10.10;99.90
18934;DHT22;9599;53.706;10.384;2023-05-15T03:32:02;10.10;99.90
18934;DHT22;9599;53.706;10.384;2023-05-15T03:34:30;10.10;99.90
18934;DHT22;9599;53.706;10.384;2023-05-15T03:37:00;10.00;99.90
18934;DHT22;9599;53.706;10.384;2023-05-15T03:39:28;10.00;99.90
18934;DHT22;9599;53.706;10.384;2023-05-15T03:41:56;10.00;99.90
18934;DHT22;9599;53.706;10.384;2023-05-15T03:44:24;9.90;99.90
18934;DHT22;9599;53.706;10.384;2023-05-15T03:46:52;9.90;99.90
18934;DHT22;9599;53.706;10.384;2023-05-15T03:49:20;9.90;99.90
18934;DHT22;9599;53.706;10.384;2023-05-15T03:51:48;9.90;99.90
18934;DHT22;9599;53.706;10.384;2023-05-15T03:54:18;10.00;99.90
18934;DHT22;9599;53.706;10.384;2023-05-15T03:56:46;10.00;99.90
18934;DHT22;9599;53.706;10.384;2023-05-15T03:59:14;10.10;99.90
18934;DHT22;9599;53.706;10.384;2023-05-15T04:01:42;10.10;99.90
18934;DHT22;9599;53.706;10.384;2023-05-15T04:04:30;10.10;99.90
18934;DHT22;9599;53.706;10.384;2023-05-15T04:06:58;10.10;99.90
18934;DHT22;9599;53.706;10.384;2023-05-15T04:09:27;10.10;99.90
18934;DHT22;9599;53.706;10.384;2023-05-15T04:11:55;10.10;99.90
18934;DHT22;9599;53.706;10.384;2023-05-15T04:14:23;10.20;99.90
18934;DHT22;9599;53.706;10.384;2023-05-15T04:16:52;10.20;99.90
18934;DHT22;9599;53.706;10.384;2023-05-15T04:19:19;10.20;99.90
18934;DHT22;9599;53.706;10.384;2023-05-15T04:21:47;10.30;99.90
18934;DHT22;9599;53.706;10.384;2023-05-15T04:24:15;10.30;99.90
18934;DHT22;9599;53.706;10.384;2023-05-15T04:26:45;10.30;99.90
18934;DHT22;9599;53.706;10.384;2023-05-15T04:29:13;10.40;99.90
18934;DHT22;9599;53.706;10.384;2023-05-15T04:31:41;10.40;99.90
18934;DHT22;9599;53.706;10.384;2023-05-15T04:34:09;10.40;99.90
18934;DHT22;9599;53.706;10.384;2023-05-15T04:36:37;10.40;99.90
18934;DHT22;9599;53.706;10.384;2023-05-15T04:39:08;10.50;99.90
18934;DHT22;9599;53.706;10.384;2023-05-15T04:41:36;10.60;99.90
18934;DHT22;9599;53.706;10.384;2023-05-15T04:44:05;10.60;99.90
18934;DHT22;9599;53.706;10.384;2023-05-15T04:46:34;10.70;99.90
18934;DHT22;9599;53.706;10.384;2023-05-15T04:49:03;10.80;99.90
18934;DHT22;9599;53.706;10.384;2023-05-15T04:51:32;10.90;99.90
18934;DHT22;9599;53.706;10.384;2023-05-15T04:54:00;11.00;99.90
18934;DHT22;9599;53.706;10.384;2023-05-15T04:56:28;11.20;99.90
18934;DHT22;9599;53.706;10.384;2023-05-15T04:58:56;11.40;99.90
18934;DHT22;9599;53.706;10.384;2023-05-15T05:01:25;11.60;99.90
18934;DHT22;9599;53.706;10.384;2023-05-15T05:03:53;11.70;99.90
18934;DHT22;9599;53.706;10.384;2023-05-15T05:06:22;11.90;99.90
18934;DHT22;9599;53.706;10.384;2023-05-15T05:08:50;12.00;99.90
18934;DHT22;9599;53.706;10.384;2023-05-15T05:11:18;12.10;99.90
18934;DHT22;9599;53.706;10.384;2023-05-15T05:13:47;12.20;99.90
18934;DHT22;9599;53.706;10.384;2023-05-15T05:16:16;12.30;99.90
18934;DHT22;9599;53.706;10.384;2023-05-15T05:18:46;12.50;99.90
18934;DHT22;9599;53.706;10.384;2023-05-15T05:21:14;12.60;99.90
18934;DHT22;9599;53.706;10.384;2023-05-15T05:23:42;12.70;99.90
18934;DHT22;9599;53.706;10.384;2023-05-15T05:26:10;12.70;99.90
18934;DHT22;9599;53.706;10.384;2023-05-15T05:28:38;12.80;99.90
18934;DHT22;9599;53.706;10.384;2023-05-15T05:31:06;13.00;99.90
18934;DHT22;9599;53.706;10.384;2023-05-15T05:33:34;13.20;99.90
18934;DHT22;9599;53.706;10.384;2023-05-15T05:36:04;13.40;99.90
18934;DHT22;9599;53.706;10.384;2023-05-15T05:38:32;13.40;99.90
18934;DHT22;9599;53.706;10.384;2023-05-15T05:41:00;13.70;99.90
18934;DHT22;9599;53.706;10.384;2023-05-15T05:43:29;13.80;99.90
18934;DHT22;9599;53.706;10.384;2023-05-15T05:45:57;14.10;99.90
18934;DHT22;9599;53.706;10.384;2023-05-15T05:48:26;14.30;99.90
18934;DHT22;9599;53.706;10.384;2023-05-15T05:50:54;14.50;99.90
18934;DHT22;9599;53.706;10.384;2023-05-15T05:53:24;14.80;99.90
18934;DHT22;9599;53.706;10.384;2023-05-15T05:55:53;14.80;99.90
18934;DHT22;9599;53.706;10.384;2023-05-15T05:58:21;14.90;99.90
18934;DHT22;9599;53.706;10.384;2023-05-15T06:00:52;15.10;99.90
18934;DHT22;9599;53.706;10.384;2023-05-15T06:03:20;15.30;99.90
18934;DHT22;9599;53.706;10.384;2023-05-15T06:05:48;15.40;99.90
18934;DHT22;9599;53.706;10.384;2023-05-15T06:08:16;15.50;99.90
18934;DHT22;9599;53.706;10.384;2023-05-15T06:10:46;15.60;99.90
18934;DHT22;9599;53.706;10.384;2023-05-15T06:13:15;15.70;99.90
18934;DHT22;9599;53.706;10.384;2023-05-15T06:15:43;16.00;99.90
18934;DHT22;9599;53.706;10.384;2023-05-15T06:18:12;16.00;99.90
18934;DHT22;9599;53.706;10.384;2023-05-15T06:20:40;16.30;99.90
18934;DHT22;9599;53.706;10.384;2023-05-15T06:23:09;16.50;99.90
18934;DHT22;9599;53.706;10.384;2023-05-15T06:25:37;16.70;99.90
18934;DHT22;9599;53.706;10.384;2023-05-15T06:28:06;16.40;99.90
18934;DHT22;9599;53.706;10.384;2023-05-15T06:30:34;16.20;99.90
18934;DHT22;9599;53.706;10.384;2023-05-15T06:33:02;16.60;99.90
18934;DHT22;9599;53.706;10.384;2023-05-15T06:35:30;16.90;99.90
18934;DHT22;9599;53.706;10.384;2023-05-15T06:37:58;16.60;99.90
18934;DHT22;9599;53.706;10.384;2023-05-15T06:40:27;16.90;99.90
18934;DHT22;9599;53.706;10.384;2023-05-15T06:42:55;17.20;99.90
18934;DHT22;9599;53.706;10.384;2023-05-15T06:45:25;17.30;99.90
18934;DHT22;9599;53.706;10.384;2023-05-15T06:47:54;17.70;99.90
18934;DHT22;9599;53.706;10.384;2023-05-15T06:50:25;17.80;99.90
18934;DHT22;9599;53.706;10.384;2023-05-15T06:52:53;18.10;99.90
18934;DHT22;9599;53.706;10.384;2023-05-15T06:55:21;18.10;99.90
18934;DHT22;9599;53.706;10.384;2023-05-15T06:57:49;17.90;99.90
18934;DHT22;9599;53.706;10.384;2023-05-15T07:00:18;17.90;99.90
18934;DHT22;9599;53.706;10.384;2023-05-15T07:02:47;17.70;99.90
18934;DHT22;9599;53.706;10.384;2023-05-15T07:05:16;18.10;99.90
18934;DHT22;9599;53.706;10.384;2023-05-15T07:07:44;18.10;99.90
18934;DHT22;9599;53.706;10.384;2023-05-15T07:10:12;18.40;99.90
18934;DHT22;9599;53.706;10.384;2023-05-15T07:12:40;18.60;99.90
18934;DHT22;9599;53.706;10.384;2023-05-15T07:15:08;18.80;99.90
18934;DHT22;9599;53.706;10.384;2023-05-15T07:17:36;18.80;99.90
18934;DHT22;9599;53.706;10.384;2023-05-15T07:20:07;19.00;99.90
18934;DHT22;9599;53.706;10.384;2023-05-15T07:22:35;19.00;99.90
18934;DHT22;9599;53.706;10.384;2023-05-15T07:25:18;19.20;99.90
18934;DHT22;9599;53.706;10.384;2023-05-15T07:27:45;19.50;99.90
18934;DHT22;9599;53.706;10.384;2023-05-15T07:30:14;19.80;99.90
18934;DHT22;9599;53.706;10.384;2023-05-15T07:32:42;19.50;99.90
18934;DHT22;9599;53.706;10.384;2023-05-15T07:35:11;19.50;99.90
18934;DHT22;9599;53.706;10.384;2023-05-15T07:37:39;19.60;99.90
18934;DHT22;9599;53.706;10.384;2023-05-15T07:40:08;19.80;99.90
18934;DHT22;9599;53.706;10.384;2023-05-15T07:42:36;20.20;99.90
18934;DHT22;9599;53.706;10.384;2023-05-15T07:45:06;20.40;99.90
18934;DHT22;9599;53.706;10.384;2023-05-15T07:47:35;20.80;99.90
18934;DHT22;9599;53.706;10.384;2023-05-15T07:50:04;20.60;99.90
18934;DHT22;9599;53.706;10.384;2023-05-15T07:52:33;20.60;99.90
18934;DHT22;9599;53.706;10.384;2023-05-15T07:55:01;20.70;99.90
18934;DHT22;9599;53.706;10.384;2023-05-15T07:57:30;20.50;99.90
18934;DHT22;9599;53.706;10.384;2023-05-15T07:59:58;20.30;99.90
18934;DHT22;9599;53.706;10.384;2023-05-15T08:02:37;20.40;99.90
18934;DHT22;9599;53.706;10.384;2023-05-15T08:05:06;20.50;99.90
18934;DHT22;9599;53.706;10.384;2023-05-15T08:07:35;20.60;99.90
18934;DHT22;9599;53.706;10.384;2023-05-15T08:10:04;20.70;99.90
18934;DHT22;9599;53.706;10.384;2023-05-15T08:12:32;20.70;99.90
18934;DHT22;9599;53.706;10.384;2023-05-15T08:15:00;21.10;99.90
18934;DHT22;9599;53.706;10.384;2023-05-15T08:17:28;21.20;99.90
18934;DHT22;9599;53.706;10.384;2023-05-15T08:19:56;21.00;99.90
18934;DHT22;9599;53.706;10.384;2023-05-15T08:22:24;21.50;99.90
18934;DHT22;9599;53.706;10.384;2023-05-15T08:24:53;21.70;99.90
18934;DHT22;9599;53.706;10.384;2023-05-15T08:27:21;21.70;99.90
18934;DHT22;9599;53.706;10.384;2023-05-15T08:29:49;21.80;99.90
18934;DHT22;9599;53.706;10.384;2023-05-15T08:32:18;22.20;99.90
18934;DHT22;9599;53.706;10.384;2023-05-15T08:34:46;22.00;99.90
18934;DHT22;9599;53.706;10.384;2023-05-15T08:37:14;21.90;99.90
18934;DHT22;9599;53.706;10.384;2023-05-15T08:39:42;21.60;99.90
18934;DHT22;9599;53.706;10.384;2023-05-15T08:42:15;21.40;99.90
18934;DHT22;9599;53.706;10.384;2023-05-15T08:44:46;21.40;99.90
18934;DHT22;9599;53.706;10.384;2023-05-15T08:47:15;21.40;99.90
18934;DHT22;9599;53.706;10.384;2023-05-15T08:49:51;21.20;99.90
18934;DHT22;9599;53.706;10.384;2023-05-15T08:52:20;21.30;99.90
18934;DHT22;9599;53.706;10.384;2023-05-15T08:54:49;21.50;99.90
18934;DHT22;9599;53.706;10.384;2023-05-15T08:57:18;21.30;99.90
18934;DHT22;9599;53.706;10.384;2023-05-15T08:59:47;21.30;99.90
18934;DHT22;9599;53.706;10.384;2023-05-15T09:02:16;21.30;99.90
18934;DHT22;9599;53.706;10.384;2023-05-15T09:04:44;21.40;99.90
18934;DHT22;9599;53.706;10.384;2023-05-15T09:07:13;21.40;99.90
18934;DHT22;9599;53.706;10.384;2023-05-15T09:09:43;21.50;99.90
18934;DHT22;9599;53.706;10.384;2023-05-15T09:12:13;21.30;99.90
18934;DHT22;9599;53.706;10.384;2023-05-15T09:14:43;21.50;99.90
18934;DHT22;9599;53.706;10.384;2023-05-15T09:17:11;21.80;99.90
18934;DHT22;9599;53.706;10.384;2023-05-15T09:19:41;22.20;99.90
18934;DHT22;9599;53.706;10.384;2023-05-15T09:22:13;22.30;99.90
18934;DHT22;9599;53.706;10.384;2023-05-15T09:24:43;22.50;99.90
18934;DHT22;9599;53.706;10.384;2023-05-15T09:27:13;22.70;99.90
18934;DHT22;9599;53.706;10.384;2023-05-15T09:29:43;22.90;99.90
18934;DHT22;9599;53.706;10.384;2023-05-15T09:32:13;22.80;99.90
18934;DHT22;9599;53.706;10.384;2023-05-15T09:34:42;23.00;99.90
18934;DHT22;9599;53.706;10.384;2023-05-15T09:37:26;22.80;99.90
18934;DHT22;9599;53.706;10.384;2023-05-15T09:39:54;22.70;99.90
18934;DHT22;9599;53.706;10.384;2023-05-15T09:42:23;22.80;99.90
18934;DHT22;9599;53.706;10.384;2023-05-15T09:44:52;22.90;99.90
18934;DHT22;9599;53.706;10.384;2023-05-15T09:47:21;23.20;99.90
18934;DHT22;9599;53.706;10.384;2023-05-15T09:49:51;23.00;99.90
18934;DHT22;9599;53.706;10.384;2023-05-15T09:52:19;23.10;99.90
18934;DHT22;9599;53.706;10.384;2023-05-15T09:54:48;23.10;99.90
18934;DHT22;9599;53.706;10.384;2023-05-15T09:57:20;23.00;99.90
18934;DHT22;9599;53.706;10.384;2023-05-15T09:59:49;22.70;99.90
18934;DHT22;9599;53.706;10.384;2023-05-15T10:02:26;22.70;99.90
18934;DHT22;9599;53.706;10.384;2023-05-15T10:04:58;22.70;99.90
18934;DHT22;9599;53.706;10.384;2023-05-15T10:07:27;22.70;99.90
18934;DHT22;9599;53.706;10.384;2023-05-15T10:09:55;22.70;99.90
18934;DHT22;9599;53.706;10.384;2023-05-15T10:12:23;22.70;99.90
18934;DHT22;9599;53.706;10.384;2023-05-15T10:14:55;22.50;99.90
18934;DHT22;9599;53.706;10.384;2023-05-15T10:17:27;22.90;95.80
18934;DHT22;9599;53.706;10.384;2023-05-15T10:19:58;22.70;95.90
18934;DHT22;9599;53.706;10.384;2023-05-15T10:22:28;22.70;95.70
18934;DHT22;9599;53.706;10.384;2023-05-15T10:25:01;22.80;97.80
18934;DHT22;9599;53.706;10.384;2023-05-15T10:27:30;22.70;98.00
18934;DHT22;9599;53.706;10.384;2023-05-15T10:30:00;22.80;99.80
18934;DHT22;9599;53.706;10.384;2023-05-15T10:32:32;23.00;99.90
18934;DHT22;9599;53.706;10.384;2023-05-15T10:35:01;23.00;97.10
18934;DHT22;9599;53.706;10.384;2023-05-15T10:37:30;22.80;97.20
18934;DHT22;9599;53.706;10.384;2023-05-15T10:40:00;22.40;96.90
18934;DHT22;9599;53.706;10.384;2023-05-15T10:42:28;22.60;99.90
18934;DHT22;9599;53.706;10.384;2023-05-15T10:44:58;23.20;97.90
18934;DHT22;9599;53.706;10.384;2023-05-15T10:47:30;23.00;98.80
18934;DHT22;9599;53.706;10.384;2023-05-15T10:49:58;22.70;99.20
18934;DHT22;9599;53.706;10.384;2023-05-15T10:52:26;22.70;99.90
18934;DHT22;9599;53.706;10.384;2023-05-15T10:54:54;22.70;98.90
18934;DHT22;9599;53.706;10.384;2023-05-15T10:57:23;22.60;99.90
18934;DHT22;9599;53.706;10.384;2023-05-15T10:59:50;22.80;99.90
18934;DHT22;9599;53.706;10.384;2023-05-15T11:02:20;23.00;99.90
18934;DHT22;9599;53.706;10.384;2023-05-15T11:04:55;23.30;99.40
18934;DHT22;9599;53.706;10.384;2023-05-15T11:07:23;23.20;98.10
18934;DHT22;9599;53.706;10.384;2023-05-15T11:09:51;23.50;98.20
18934;DHT22;9599;53.706;10.384;2023-05-15T11:12:20;23.40;95.20
18934;DHT22;9599;53.706;10.384;2023-05-15T11:15:19;23.30;98.20
18934;DHT22;9599;53.706;10.384;2023-05-15T11:18:04;23.40;98.00
18934;DHT22;9599;53.706;10.384;2023-05-15T11:20:37;23.40;98.80
18934;DHT22;9599;53.706;10.384;2023-05-15T11:23:06;23.70;98.30
18934;DHT22;9599;53.706;10.384;2023-05-15T11:25:35;23.70;99.00
18934;DHT22;9599;53.706;10.384;2023-05-15T11:28:04;23.80;97.50
18934;DHT22;9599;53.706;10.384;2023-05-15T11:30:34;23.40;97.30
18934;DHT22;9599;53.706;10.384;2023-05-15T11:33:05;23.00;98.20
18934;DHT22;9599;53.706;10.384;2023-05-15T11:35:39;22.80;98.60
18934;DHT22;9599;53.706;10.384;2023-05-15T11:38:12;22.60;99.40
18934;DHT22;9599;53.706;10.384;2023-05-15T11:40:45;22.50;99.90
18934;DHT22;9599;53.706;10.384;2023-05-15T11:43:18;22.30;99.90
18934;DHT22;9599;53.706;10.384;2023-05-15T11:45:48;22.30;99.90
18934;DHT22;9599;53.706;10.384;2023-05-15T11:48:17;22.30;99.90
18934;DHT22;9599;53.706;10.384;2023-05-15T11:50:47;22.20;99.90
18934;DHT22;9599;53.706;10.384;2023-05-15T11:53:17;22.20;99.90
18934;DHT22;9599;53.706;10.384;2023-05-15T11:55:45;22.20;99.90
18934;DHT22;9599;53.706;10.384;2023-05-15T11:58:14;22.00;99.90
18934;DHT22;9599;53.706;10.384;2023-05-15T12:00:44;21.80;99.90
18934;DHT22;9599;53.706;10.384;2023-05-15T12:03:14;21.70;99.90
18934;DHT22;9599;53.706;10.384;2023-05-15T12:05:44;21.80;99.90
18934;DHT22;9599;53.706;10.384;2023-05-15T12:08:30;21.70;99.90
18934;DHT22;9599;53.706;10.384;2023-05-15T12:11:00;21.60;99.90
18934;DHT22;9599;53.706;10.384;2023-05-15T12:13:29;21.50;99.90
18934;DHT22;9599;53.706;10.384;2023-05-15T12:15:57;21.40;99.90
18934;DHT22;9599;53.706;10.384;2023-05-15T12:18:25;21.40;99.90
18934;DHT22;9599;53.706;10.384;2023-05-15T12:20:54;21.40;99.90
18934;DHT22;9599;53.706;10.384;2023-05-15T12:23:23;21.50;99.90
18934;DHT22;9599;53.706;10.384;2023-05-15T12:25:57;21.40;99.90
18934;DHT22;9599;53.706;10.384;2023-05-15T12:28:26;21.50;99.90
18934;DHT22;9599;53.706;10.384;2023-05-15T12:30:55;21.50;99.90
18934;DHT22;9599;53.706;10.384;2023-05-15T12:33:24;21.50;99.90
18934;DHT22;9599;53.706;10.384;2023-05-15T12:35:53;21.60;99.90
18934;DHT22;9599;53.706;10.384;2023-05-15T12:38:27;21.40;99.90
18934;DHT22;9599;53.706;10.384;2023-05-15T12:40:57;21.40;99.90
18934;DHT22;9599;53.706;10.384;2023-05-15T12:43:26;21.40;99.90
18934;DHT22;9599;53.706;10.384;2023-05-15T12:45:54;21.60;99.90
18934;DHT22;9599;53.706;10.384;2023-05-15T12:48:28;21.60;99.90
18934;DHT22;9599;53.706;10.384;2023-05-15T12:51:03;21.70;99.90
18934;DHT22;9599;53.706;10.384;2023-05-15T12:53:32;21.40;99.90
18934;DHT22;9599;53.706;10.384;2023-05-15T12:56:02;21.30;99.60
18934;DHT22;9599;53.706;10.384;2023-05-15T12:58:31;21.20;99.90
18934;DHT22;9599;53.706;10.384;2023-05-15T13:01:00;21.40;99.90
18934;DHT22;9599;53.706;10.384;2023-05-15T13:03:29;21.60;99.90
18934;DHT22;9599;53.706;10.384;2023-05-15T13:05:58;21.50;99.90
18934;DHT22;9599;53.706;10.384;2023-05-15T13:08:28;21.40;99.60
18934;DHT22;9599;53.706;10.384;2023-05-15T13:10:58;21.40;99.90
18934;DHT22;9599;53.706;10.384;2023-05-15T13:13:41;21.50;99.90
18934;DHT22;9599;53.706;10.384;2023-05-15T13:16:19;21.30;99.20
18934;DHT22;9599;53.706;10.384;2023-05-15T13:18:48;21.20;99.90
18934;DHT22;9599;53.706;10.384;2023-05-15T13:21:16;21.30;99.90
18934;DHT22;9599;53.706;10.384;2023-05-15T13:23:44;21.30;99.90
18934;DHT22;9599;53.706;10.384;2023-05-15T13:26:12;21.20;99.90
18934;DHT22;9599;53.706;10.384;2023-05-15T13:28:41;21.20;99.90
18934;DHT22;9599;53.706;10.384;2023-05-15T13:31:09;21.20;99.90
18934;DHT22;9599;53.706;10.384;2023-05-15T13:33:37;21.20;99.90
18934;DHT22;9599;53.706;10.384;2023-05-15T13:36:06;21.20;99.90
18934;DHT22;9599;53.706;10.384;2023-05-15T13:38:34;21.20;99.90
18934;DHT22;9599;53.706;10.384;2023-05-15T13:41:03;21.10;99.90
18934;DHT22;9599;53.706;10.384;2023-05-15T13:43:31;21.10;99.90
18934;DHT22;9599;53.706;10.384;2023-05-15T13:46:00;21.20;99.90
18934;DHT22;9599;53.706;10.384;2023-05-15T13:48:28;21.30;99.90
18934;DHT22;9599;53.706;10.384;2023-05-15T13:50:56;21.40;99.90
18934;DHT22;9599;53.706;10.384;2023-05-15T13:53:24;21.40;99.90
18934;DHT22;9599;53.706;10.384;2023-05-15T13:55:52;21.40;99.90
18934;DHT22;9599;53.706;10.384;2023-05-15T13:58:20;21.30;99.90
18934;DHT22;9599;53.706;10.384;2023-05-15T14:00:52;21.30;99.90
18934;DHT22;9599;53.706;10.384;2023-05-15T14:03:21;21.40;99.90
18934;DHT22;9599;53.706;10.384;2023-05-15T14:05:49;21.50;99.90
18934;DHT22;9599;53.706;10.384;2023-05-15T14:08:18;21.60;99.90
18934;DHT22;9599;53.706;10.384;2023-05-15T14:10:46;21.80;99.90
18934;DHT22;9599;53.706;10.384;2023-05-15T14:13:14;22.00;99.90
18934;DHT22;9599;53.706;10.384;2023-05-15T14:15:42;22.20;99.90
18934;DHT22;9599;53.706;10.384;2023-05-15T14:18:10;22.40;99.70
18934;DHT22;9599;53.706;10.384;2023-05-15T14:20:40;22.70;98.40
18934;DHT22;9599;53.706;10.384;2023-05-15T14:23:07;22.80;97.90
18934;DHT22;9599;53.706;10.384;2023-05-15T14:25:35;22.90;98.80
18934;DHT22;9599;53.706;10.384;2023-05-15T14:28:05;22.70;95.80
18934;DHT22;9599;53.706;10.384;2023-05-15T14:30:33;22.80;98.20
18934;DHT22;9599;53.706;10.384;2023-05-15T14:33:01;22.90;96.30
18934;DHT22;9599;53.706;10.384;2023-05-15T14:35:29;22.80;96.40
18934;DHT22;9599;53.706;10.384;2023-05-15T14:37:58;22.60;96.40
18934;DHT22;9599;53.706;10.384;2023-05-15T14:40:26;22.70;97.00
18934;DHT22;9599;53.706;10.384;2023-05-15T14:42:54;22.80;96.90
18934;DHT22;9599;53.706;10.384;2023-05-15T14:45:22;22.90;97.10
18934;DHT22;9599;53.706;10.384;2023-05-15T14:47:50;22.80;96.50
18934;DHT22;9599;53.706;10.384;2023-05-15T14:50:18;22.70;96.30
18934;DHT22;9599;53.706;10.384;2023-05-15T14:52:46;22.50;95.10
18934;DHT22;9599;53.706;10.384;2023-05-15T14:55:17;22.40;95.70
18934;DHT22;9599;53.706;10.384;2023-05-15T14:57:48;22.30;97.60
18934;DHT22;9599;53.706;10.384;2023-05-15T15:00:16;22.40;98.10
18934;DHT22;9599;53.706;10.384;2023-05-15T15:02:44;22.30;99.90
18934;DHT22;9599;53.706;10.384;2023-05-15T15:05:12;22.40;99.90
18934;DHT22;9599;53.706;10.384;2023-05-15T15:08:00;22.30;99.90
18934;DHT22;9599;53.706;10.384;2023-05-15T15:10:31;22.20;99.90
18934;DHT22;9599;53.706;10.384;2023-05-15T15:13:00;22.10;99.90
18934;DHT22;9599;53.706;10.384;2023-05-15T15:15:29;21.70;99.90
18934;DHT22;9599;53.706;10.384;2023-05-15T15:17:57;21.50;99.90
18934;DHT22;9599;53.706;10.384;2023-05-15T15:20:26;21.40;99.90
18934;DHT22;9599;53.706;10.384;2023-05-15T15:22:55;21.60;99.90
18934;DHT22;9599;53.706;10.384;2023-05-15T15:25:23;21.50;99.90
18934;DHT22;9599;53.706;10.384;2023-05-15T15:27:52;21.40;99.90
18934;DHT22;9599;53.706;10.384;2023-05-15T15:30:20;21.60;99.90
18934;DHT22;9599;53.706;10.384;2023-05-15T15:32:48;21.60;99.90
18934;DHT22;9599;53.706;10.384;2023-05-15T15:35:16;21.50;99.90
18934;DHT22;9599;53.706;10.384;2023-05-15T15:37:44;21.40;99.90
18934;DHT22;9599;53.706;10.384;2023-05-15T15:40:12;21.30;99.90
18934;DHT22;9599;53.706;10.384;2023-05-15T15:42:40;21.10;99.90
18934;DHT22;9599;53.706;10.384;2023-05-15T15:45:10;20.80;99.90